sensor_id;sensor_type;location;lat;lon;timestamp;temperature;humidity
15394;DHT22;7795;47.986;11.868;2022-12-10T00:02:01;4.90;82.50
15394;DHT22;7795;47.986;11.868;2022-12-10T00:04:28;5.00;82.50
15394;DHT22;7795;47.986;11.868;2022-12-10T00:06:54;5.00;82.50
15394;DHT22;7795;47.986;11.868;2022-12-10T00:09:20;5.00;82.50
15394;DHT22;7795;47.986;11.868;2022-12-10T00:11:46;5.00;82.50
15394;DHT22;7795;47.986;11.868;2022-12-10T00:14:13;5.00;82.50
15394;DHT22;7795;47.986;11.868;2022-12-10T00:16:39;5.00;82.50
15394;DHT22;7795;47.986;11.868;2022-12-10T00:19:05;5.00;82.50
15394;DHT22;7795;47.986;11.868;2022-12-10T00:21:33;5.00;82.50
15394;DHT22;7795;47.986;11.868;2022-12-10T00:24:00;5.00;82.50
15394;DHT22;7795;47.986;11.868;2022-12-10T00:26:28;5.00;82.50
15394;DHT22;7795;47.986;11.868;2022-12-10T00:28:55;5.00;82.50
15394;DHT22;7795;47.986;11.868;2022-12-10T00:31:22;5.00;82.40
15394;DHT22;7795;47.986;11.868;2022-12-10T00:33:49;5.00;82.40
15394;DHT22;7795;47.986;11.868;2022-12-10T00:36:17;5.00;82.50
15394;DHT22;7795;47.986;11.868;2022-12-10T00:38:46;5.00;82.60
15394;DHT22;7795;47.986;11.868;2022-12-10T00:41:13;5.00;82.60
15394;DHT22;7795;47.986;11.868;2022-12-10T00:43:39;5.00;82.60
15394;DHT22;7795;47.986;11.868;2022-12-10T00:46:06;5.00;82.50
15394;DHT22;7795;47.986;11.868;2022-12-10T00:48:31;5.00;82.50
15394;DHT22;7795;47.986;11.868;2022-12-10T00:50:59;5.00;82.50
15394;DHT22;7795;47.986;11.868;2022-12-10T00:53:26;5.00;82.50
15394;DHT22;7795;47.986;11.868;2022-12-10T00:55:53;5.00;82.50
15394;DHT22;7795;47.986;11.868;2022-12-10T00:58:19;5.00;82.50
15394;DHT22;7795;47.986;11.868;2022-12-10T01:00:48;5.00;82.50
15394;DHT22;7795;47.986;11.868;2022-12-10T01:03:14;5.00;82.50
15394;DHT22;7795;47.986;11.868;2022-12-10T01:05:40;5.00;82.60
15394;DHT22;7795;47.986;11.868;2022-12-10T01:08:06;5.00;82.60
15394;DHT22;7795;47.986;11.868;2022-12-10T01:10:32;5.00;82.70
15394;DHT22;7795;47.986;11.868;2022-12-10T01:12:59;5.00;82.70
15394;DHT22;7795;47.986;11.868;2022-12-10T01:15:25;5.00;82.70
15394;DHT22;7795;47.986;11.868;2022-12-10T01:17:51;5.00;82.70
15394;DHT22;7795;47.986;11.868;2022-12-10T01:20:17;5.00;83.40
15394;DHT22;7795;47.986;11.868;2022-12-10T01:22:43;5.00;82.50
15394;DHT22;7795;47.986;11.868;2022-12-10T01:25:09;5.00;82.40
15394;DHT22;7795;47.986;11.868;2022-12-10T01:27:34;5.00;82.40
15394;DHT22;7795;47.986;11.868;2022-12-10T01:30:02;5.00;82.40
15394;DHT22;7795;47.986;11.868;2022-12-10T01:32:28;5.00;82.50
15394;DHT22;7795;47.986;11.868;2022-12-10T01:34:54;5.00;82.50
15394;DHT22;7795;47.986;11.868;2022-12-10T01:37:19;5.00;82.50
15394;DHT22;7795;47.986;11.868;2022-12-10T01:39:45;4.90;82.50
15394;DHT22;7795;47.986;11.868;2022-12-10T01:42:13;4.90;82.50
15394;DHT22;7795;47.986;11.868;2022-12-10T01:45:08;4.90;82.50
15394;DHT22;7795;47.986;11.868;2022-12-10T01:47:34;4.90;82.70
15394;DHT22;7795;47.986;11.868;2022-12-10T01:50:00;4.90;82.50
15394;DHT22;7795;47.986;11.868;2022-12-10T01:52:26;4.90;82.50
15394;DHT22;7795;47.986;11.868;2022-12-10T01:54:52;4.90;82.50
15394;DHT22;7795;47.986;11.868;2022-12-10T01:57:20;4.90;82.50
15394;DHT22;7795;47.986;11.868;2022-12-10T01:59:49;4.90;82.60
15394;DHT22;7795;47.986;11.868;2022-12-10T02:02:31;4.90;82.70
15394;DHT22;7795;47.986;11.868;2022-12-10T02:05:17;4.90;82.70
15394;DHT22;7795;47.986;11.868;2022-12-10T02:07:59;4.90;82.70
15394;DHT22;7795;47.986;11.868;2022-12-10T02:10:36;4.90;82.70
15394;DHT22;7795;47.986;11.868;2022-12-10T02:13:07;4.90;82.70
15394;DHT22;7795;47.986;11.868;2022-12-10T02:15:41;5.00;82.70
15394;DHT22;7795;47.986;11.868;2022-12-10T02:18:11;5.00;82.70
15394;DHT22;7795;47.986;11.868;2022-12-10T02:20:40;4.90;82.50
15394;DHT22;7795;47.986;11.868;2022-12-10T02:23:10;5.00;82.60
15394;DHT22;7795;47.986;11.868;2022-12-10T02:25:42;5.00;82.60
15394;DHT22;7795;47.986;11.868;2022-12-10T02:28:13;5.00;82.70
15394;DHT22;7795;47.986;11.868;2022-12-10T02:30:45;5.00;82.60
15394;DHT22;7795;47.986;11.868;2022-12-10T02:33:14;5.00;82.60
15394;DHT22;7795;47.986;11.868;2022-12-10T02:35:42;5.00;82.70
15394;DHT22;7795;47.986;11.868;2022-12-10T02:38:11;4.90;82.60
15394;DHT22;7795;47.986;11.868;2022-12-10T02:40:41;4.90;82.70
15394;DHT22;7795;47.986;11.868;2022-12-10T02:43:12;4.90;82.70
15394;DHT22;7795;47.986;11.868;2022-12-10T02:45:38;4.90;82.70
15394;DHT22;7795;47.986;11.868;2022-12-10T02:48:06;5.00;82.70
15394;DHT22;7795;47.986;11.868;2022-12-10T02:50:32;4.90;82.70
15394;DHT22;7795;47.986;11.868;2022-12-10T02:52:59;4.90;82.70
15394;DHT22;7795;47.986;11.868;2022-12-10T02:55:25;4.90;82.70
15394;DHT22;7795;47.986;11.868;2022-12-10T02:58:03;4.90;82.70
15394;DHT22;7795;47.986;11.868;2022-12-10T03:00:37;4.90;82.70
15394;DHT22;7795;47.986;11.868;2022-12-10T03:03:25;4.90;82.70
15394;DHT22;7795;47.986;11.868;2022-12-10T03:05:58;4.90;82.70
15394;DHT22;7795;47.986;11.868;2022-12-10T03:08:28;4.90;82.70
15394;DHT22;7795;47.986;11.868;2022-12-10T03:11:01;4.90;82.80
15394;DHT22;7795;47.986;11.868;2022-12-10T03:13:31;5.00;82.90
15394;DHT22;7795;47.986;11.868;2022-12-10T03:15:59;4.90;82.80
15394;DHT22;7795;47.986;11.868;2022-12-10T03:18:27;4.90;82.80
15394;DHT22;7795;47.986;11.868;2022-12-10T03:20:59;4.90;82.70
15394;DHT22;7795;47.986;11.868;2022-12-10T03:23:28;5.00;82.80
15394;DHT22;7795;47.986;11.868;2022-12-10T03:25:55;4.90;82.80
15394;DHT22;7795;47.986;11.868;2022-12-10T03:28:21;4.90;82.80
15394;DHT22;7795;47.986;11.868;2022-12-10T03:30:49;4.90;82.80
15394;DHT22;7795;47.986;11.868;2022-12-10T03:33:16;4.90;82.80
15394;DHT22;7795;47.986;11.868;2022-12-10T03:35:43;5.00;82.80
15394;DHT22;7795;47.986;11.868;2022-12-10T03:38:10;5.00;83.00
15394;DHT22;7795;47.986;11.868;2022-12-10T03:40:36;5.00;83.00
15394;DHT22;7795;47.986;11.868;2022-12-10T03:43:02;5.00;82.90
15394;DHT22;7795;47.986;11.868;2022-12-10T03:45:28;5.00;82.90
15394;DHT22;7795;47.986;11.868;2022-12-10T03:47:54;5.00;82.90
15394;DHT22;7795;47.986;11.868;2022-12-10T03:50:19;5.00;83.00
15394;DHT22;7795;47.986;11.868;2022-12-10T03:52:47;5.00;83.00
15394;DHT22;7795;47.986;11.868;2022-12-10T03:55:12;5.00;83.00
15394;DHT22;7795;47.986;11.868;2022-12-10T03:57:38;5.00;83.00
15394;DHT22;7795;47.986;11.868;2022-12-10T04:00:06;5.00;82.90
15394;DHT22;7795;47.986;11.868;2022-12-10T04:02:32;5.00;83.00
15394;DHT22;7795;47.986;11.868;2022-12-10T04:04:58;5.00;83.00
15394;DHT22;7795;47.986;11.868;2022-12-10T04:07:24;5.00;83.00
15394;DHT22;7795;47.986;11.868;2022-12-10T04:09:51;5.00;83.00
15394;DHT22;7795;47.986;11.868;2022-12-10T04:12:17;5.00;83.00
15394;DHT22;7795;47.986;11.868;2022-12-10T04:14:43;5.00;82.90
15394;DHT22;7795;47.986;11.868;2022-12-10T04:17:27;5.00;82.90
15394;DHT22;7795;47.986;11.868;2022-12-10T04:19:53;5.00;83.00
15394;DHT22;7795;47.986;11.868;2022-12-10T04:22:19;5.00;83.00
15394;DHT22;7795;47.986;11.868;2022-12-10T04:25:05;5.00;82.80
15394;DHT22;7795;47.986;11.868;2022-12-10T04:27:50;5.00;82.90
15394;DHT22;7795;47.986;11.868;2022-12-10T04:30:16;5.00;82.80
15394;DHT22;7795;47.986;11.868;2022-12-10T04:32:41;5.00;82.90
15394;DHT22;7795;47.986;11.868;2022-12-10T04:35:08;4.90;83.50
15394;DHT22;7795;47.986;11.868;2022-12-10T04:37:34;4.90;82.80
15394;DHT22;7795;47.986;11.868;2022-12-10T04:40:00;4.90;82.90
15394;DHT22;7795;47.986;11.868;2022-12-10T04:42:27;4.90;83.00
15394;DHT22;7795;47.986;11.868;2022-12-10T04:44:53;4.90;83.00
15394;DHT22;7795;47.986;11.868;2022-12-10T04:47:19;4.90;83.00
15394;DHT22;7795;47.986;11.868;2022-12-10T04:49:45;4.90;83.00
15394;DHT22;7795;47.986;11.868;2022-12-10T04:52:12;4.90;83.00
15394;DHT22;7795;47.986;11.868;2022-12-10T04:54:38;5.00;83.10
15394;DHT22;7795;47.986;11.868;2022-12-10T04:57:04;5.00;83.10
15394;DHT22;7795;47.986;11.868;2022-12-10T04:59:31;5.00;83.10
15394;DHT22;7795;47.986;11.868;2022-12-10T05:01:58;5.00;83.10
15394;DHT22;7795;47.986;11.868;2022-12-10T05:04:23;5.00;83.00
15394;DHT22;7795;47.986;11.868;2022-12-10T05:06:49;5.00;83.00
15394;DHT22;7795;47.986;11.868;2022-12-10T05:09:16;5.00;82.90
15394;DHT22;7795;47.986;11.868;2022-12-10T05:11:42;5.00;82.90
15394;DHT22;7795;47.986;11.868;2022-12-10T05:14:10;5.00;83.00
15394;DHT22;7795;47.986;11.868;2022-12-10T05:16:37;4.90;82.90
15394;DHT22;7795;47.986;11.868;2022-12-10T05:19:03;5.00;83.00
15394;DHT22;7795;47.986;11.868;2022-12-10T05:21:29;5.00;83.00
15394;DHT22;7795;47.986;11.868;2022-12-10T05:24:15;5.00;83.00
15394;DHT22;7795;47.986;11.868;2022-12-10T05:26:41;5.00;83.00
15394;DHT22;7795;47.986;11.868;2022-12-10T05:29:07;4.90;82.90
15394;DHT22;7795;47.986;11.868;2022-12-10T05:31:33;4.90;83.00
15394;DHT22;7795;47.986;11.868;2022-12-10T05:34:01;4.90;83.10
15394;DHT22;7795;47.986;11.868;2022-12-10T05:36:29;4.90;83.10
15394;DHT22;7795;47.986;11.868;2022-12-10T05:38:56;4.90;83.00
15394;DHT22;7795;47.986;11.868;2022-12-10T05:41:24;4.90;83.00
15394;DHT22;7795;47.986;11.868;2022-12-10T05:43:50;4.90;83.10
15394;DHT22;7795;47.986;11.868;2022-12-10T05:46:19;4.90;83.10
15394;DHT22;7795;47.986;11.868;2022-12-10T05:48:45;5.00;83.10
15394;DHT22;7795;47.986;11.868;2022-12-10T05:51:17;4.90;83.00
15394;DHT22;7795;47.986;11.868;2022-12-10T05:53:44;5.00;83.20
15394;DHT22;7795;47.986;11.868;2022-12-10T05:56:11;5.00;83.20
15394;DHT22;7795;47.986;11.868;2022-12-10T05:58:40;5.00;83.30
15394;DHT22;7795;47.986;11.868;2022-12-10T06:01:07;5.00;83.30
15394;DHT22;7795;47.986;11.868;2022-12-10T06:03:33;5.00;83.20
15394;DHT22;7795;47.986;11.868;2022-12-10T06:05:59;5.00;83.10
15394;DHT22;7795;47.986;11.868;2022-12-10T06:08:26;5.00;83.10
15394;DHT22;7795;47.986;11.868;2022-12-10T06:10:52;5.00;83.10
15394;DHT22;7795;47.986;11.868;2022-12-10T06:13:19;5.00;83.10
15394;DHT22;7795;47.986;11.868;2022-12-10T06:15:45;5.00;83.20
15394;DHT22;7795;47.986;11.868;2022-12-10T06:18:11;5.00;83.20
15394;DHT22;7795;47.986;11.868;2022-12-10T06:20:38;5.00;83.10
15394;DHT22;7795;47.986;11.868;2022-12-10T06:23:04;5.00;83.20
15394;DHT22;7795;47.986;11.868;2022-12-10T06:25:32;5.00;83.30
15394;DHT22;7795;47.986;11.868;2022-12-10T06:27:58;5.00;83.20
15394;DHT22;7795;47.986;11.868;2022-12-10T06:30:23;5.00;83.20
15394;DHT22;7795;47.986;11.868;2022-12-10T06:32:49;5.00;83.10
15394;DHT22;7795;47.986;11.868;2022-12-10T06:35:15;5.00;83.10
15394;DHT22;7795;47.986;11.868;2022-12-10T06:37:41;5.00;83.10
15394;DHT22;7795;47.986;11.868;2022-12-10T06:40:08;5.00;83.00
15394;DHT22;7795;47.986;11.868;2022-12-10T06:42:35;5.00;83.00
15394;DHT22;7795;47.986;11.868;2022-12-10T06:45:01;5.00;83.00
15394;DHT22;7795;47.986;11.868;2022-12-10T06:47:26;5.00;83.00
15394;DHT22;7795;47.986;11.868;2022-12-10T06:49:52;5.00;83.10
15394;DHT22;7795;47.986;11.868;2022-12-10T06:52:18;5.00;83.10
15394;DHT22;7795;47.986;11.868;2022-12-10T06:54:44;5.00;83.10
15394;DHT22;7795;47.986;11.868;2022-12-10T06:57:09;5.00;83.10
15394;DHT22;7795;47.986;11.868;2022-12-10T06:59:36;5.00;83.10
15394;DHT22;7795;47.986;11.868;2022-12-10T07:02:02;5.00;83.10
15394;DHT22;7795;47.986;11.868;2022-12-10T07:04:28;5.00;83.20
15394;DHT22;7795;47.986;11.868;2022-12-10T07:06:54;5.00;83.20
15394;DHT22;7795;47.986;11.868;2022-12-10T07:09:20;5.00;83.20
15394;DHT22;7795;47.986;11.868;2022-12-10T07:11:46;5.00;83.20
15394;DHT22;7795;47.986;11.868;2022-12-10T07:14:14;5.00;83.20
15394;DHT22;7795;47.986;11.868;2022-12-10T07:16:41;5.00;83.20
15394;DHT22;7795;47.986;11.868;2022-12-10T07:19:09;5.00;83.30
15394;DHT22;7795;47.986;11.868;2022-12-10T07:21:36;5.00;83.30
15394;DHT22;7795;47.986;11.868;2022-12-10T07:24:04;5.00;83.30
15394;DHT22;7795;47.986;11.868;2022-12-10T07:26:32;5.00;83.20
15394;DHT22;7795;47.986;11.868;2022-12-10T07:28:59;5.00;83.20
15394;DHT22;7795;47.986;11.868;2022-12-10T07:31:25;5.00;83.20
15394;DHT22;7795;47.986;11.868;2022-12-10T07:33:54;5.00;83.20
15394;DHT22;7795;47.986;11.868;2022-12-10T07:36:21;5.00;83.30
15394;DHT22;7795;47.986;11.868;2022-12-10T07:38:49;5.00;83.20
15394;DHT22;7795;47.986;11.868;2022-12-10T07:41:16;5.00;83.20
15394;DHT22;7795;47.986;11.868;2022-12-10T07:43:43;5.00;83.30
15394;DHT22;7795;47.986;11.868;2022-12-10T07:46:12;5.00;83.10
15394;DHT22;7795;47.986;11.868;2022-12-10T07:48:40;5.00;83.20
15394;DHT22;7795;47.986;11.868;2022-12-10T07:51:07;5.00;83.30
15394;DHT22;7795;47.986;11.868;2022-12-10T07:53:33;5.10;83.20
15394;DHT22;7795;47.986;11.868;2022-12-10T07:56:00;5.00;83.10
15394;DHT22;7795;47.986;11.868;2022-12-10T07:58:26;5.10;83.10
15394;DHT22;7795;47.986;11.868;2022-12-10T08:00:52;5.10;83.10
15394;DHT22;7795;47.986;11.868;2022-12-10T08:03:18;5.10;83.00
15394;DHT22;7795;47.986;11.868;2022-12-10T08:05:44;5.10;83.00
15394;DHT22;7795;47.986;11.868;2022-12-10T08:08:12;5.10;83.00
15394;DHT22;7795;47.986;11.868;2022-12-10T08:10:38;5.10;83.10
15394;DHT22;7795;47.986;11.868;2022-12-10T08:13:06;5.10;83.10
15394;DHT22;7795;47.986;11.868;2022-12-10T08:15:32;5.10;83.10
15394;DHT22;7795;47.986;11.868;2022-12-10T08:17:58;5.20;83.10
15394;DHT22;7795;47.986;11.868;2022-12-10T08:20:25;5.10;83.10
15394;DHT22;7795;47.986;11.868;2022-12-10T08:22:51;5.20;83.10
15394;DHT22;7795;47.986;11.868;2022-12-10T08:25:18;5.20;83.00
15394;DHT22;7795;47.986;11.868;2022-12-10T08:27:44;5.20;83.00
15394;DHT22;7795;47.986;11.868;2022-12-10T08:30:11;5.20;83.00
15394;DHT22;7795;47.986;11.868;2022-12-10T08:32:37;5.20;83.20
15394;DHT22;7795;47.986;11.868;2022-12-10T08:35:05;5.20;83.20
15394;DHT22;7795;47.986;11.868;2022-12-10T08:37:31;5.20;83.10
15394;DHT22;7795;47.986;11.868;2022-12-10T08:39:57;5.20;83.00
15394;DHT22;7795;47.986;11.868;2022-12-10T08:42:25;5.20;83.00
15394;DHT22;7795;47.986;11.868;2022-12-10T08:44:51;5.30;82.80
15394;DHT22;7795;47.986;11.868;2022-12-10T08:47:17;5.30;83.00
15394;DHT22;7795;47.986;11.868;2022-12-10T08:49:42;5.30;83.00
15394;DHT22;7795;47.986;11.868;2022-12-10T08:52:08;5.30;83.00
15394;DHT22;7795;47.986;11.868;2022-12-10T08:54:34;5.30;83.00
15394;DHT22;7795;47.986;11.868;2022-12-10T08:57:01;5.30;82.90
15394;DHT22;7795;47.986;11.868;2022-12-10T08:59:28;5.30;82.90
15394;DHT22;7795;47.986;11.868;2022-12-10T09:01:54;5.30;82.80
15394;DHT22;7795;47.986;11.868;2022-12-10T09:04:20;5.30;82.80
15394;DHT22;7795;47.986;11.868;2022-12-10T09:06:46;5.30;82.70
15394;DHT22;7795;47.986;11.868;2022-12-10T09:09:13;5.30;82.80
15394;DHT22;7795;47.986;11.868;2022-12-10T09:11:39;5.30;82.80
15394;DHT22;7795;47.986;11.868;2022-12-10T09:14:04;5.40;82.80
15394;DHT22;7795;47.986;11.868;2022-12-10T09:16:34;5.40;82.80
15394;DHT22;7795;47.986;11.868;2022-12-10T09:19:02;5.40;83.00
15394;DHT22;7795;47.986;11.868;2022-12-10T09:21:28;5.40;82.90
15394;DHT22;7795;47.986;11.868;2022-12-10T09:23:56;5.40;82.80
15394;DHT22;7795;47.986;11.868;2022-12-10T09:26:22;5.40;82.80
15394;DHT22;7795;47.986;11.868;2022-12-10T09:28:48;5.40;82.50
15394;DHT22;7795;47.986;11.868;2022-12-10T09:31:16;5.40;82.60
15394;DHT22;7795;47.986;11.868;2022-12-10T09:33:45;5.40;82.70
15394;DHT22;7795;47.986;11.868;2022-12-10T09:36:13;5.40;82.70
15394;DHT22;7795;47.986;11.868;2022-12-10T09:38:41;5.40;82.70
15394;DHT22;7795;47.986;11.868;2022-12-10T09:41:24;5.40;82.70
15394;DHT22;7795;47.986;11.868;2022-12-10T09:43:58;5.40;82.80
15394;DHT22;7795;47.986;11.868;2022-12-10T09:46:35;5.50;82.80
15394;DHT22;7795;47.986;11.868;2022-12-10T09:49:12;5.50;82.80
15394;DHT22;7795;47.986;11.868;2022-12-10T09:51:39;5.50;82.80
15394;DHT22;7795;47.986;11.868;2022-12-10T09:54:15;5.50;82.80
15394;DHT22;7795;47.986;11.868;2022-12-10T09:56:44;5.50;82.80
15394;DHT22;7795;47.986;11.868;2022-12-10T09:59:17;5.50;82.70
15394;DHT22;7795;47.986;11.868;2022-12-10T10:01:44;5.60;82.70
15394;DHT22;7795;47.986;11.868;2022-12-10T10:04:13;5.60;82.60
15394;DHT22;7795;47.986;11.868;2022-12-10T10:06:40;5.60;82.40
15394;DHT22;7795;47.986;11.868;2022-12-10T10:09:09;5.60;82.50
15394;DHT22;7795;47.986;11.868;2022-12-10T10:11:39;5.60;82.50
15394;DHT22;7795;47.986;11.868;2022-12-10T10:14:09;5.60;82.40
15394;DHT22;7795;47.986;11.868;2022-12-10T10:16:40;5.70;82.40
15394;DHT22;7795;47.986;11.868;2022-12-10T10:19:14;5.70;82.30
15394;DHT22;7795;47.986;11.868;2022-12-10T10:21:42;5.70;82.10
15394;DHT22;7795;47.986;11.868;2022-12-10T10:24:14;5.70;82.10
15394;DHT22;7795;47.986;11.868;2022-12-10T10:26:41;5.70;82.10
15394;DHT22;7795;47.986;11.868;2022-12-10T10:29:08;5.70;82.10
15394;DHT22;7795;47.986;11.868;2022-12-10T10:31:39;5.70;82.30
15394;DHT22;7795;47.986;11.868;2022-12-10T10:34:13;5.70;82.30
15394;DHT22;7795;47.986;11.868;2022-12-10T10:36:42;5.70;82.10
15394;DHT22;7795;47.986;11.868;2022-12-10T10:39:10;5.70;82.70
15394;DHT22;7795;47.986;11.868;2022-12-10T10:41:38;5.70;81.80
15394;DHT22;7795;47.986;11.868;2022-12-10T10:44:13;5.60;81.90
15394;DHT22;7795;47.986;11.868;2022-12-10T10:46:40;5.70;82.10
15394;DHT22;7795;47.986;11.868;2022-12-10T10:49:14;5.70;82.10
15394;DHT22;7795;47.986;11.868;2022-12-10T10:51:44;5.70;82.10
15394;DHT22;7795;47.986;11.868;2022-12-10T10:54:11;5.70;82.10
15394;DHT22;7795;47.986;11.868;2022-12-10T10:56:40;5.70;82.10
15394;DHT22;7795;47.986;11.868;2022-12-10T10:59:29;5.70;82.20
15394;DHT22;7795;47.986;11.868;2022-12-10T11:01:59;5.70;82.30
15394;DHT22;7795;47.986;11.868;2022-12-10T11:04:30;5.70;82.30
15394;DHT22;7795;47.986;11.868;2022-12-10T11:07:01;5.70;82.30
15394;DHT22;7795;47.986;11.868;2022-12-10T11:09:28;5.70;82.10
15394;DHT22;7795;47.986;11.868;2022-12-10T11:11:59;5.70;82.10
15394;DHT22;7795;47.986;11.868;2022-12-10T11:14:29;5.70;82.10
15394;DHT22;7795;47.986;11.868;2022-12-10T11:17:01;5.70;82.10
15394;DHT22;7795;47.986;11.868;2022-12-10T11:19:27;5.70;82.10
15394;DHT22;7795;47.986;11.868;2022-12-10T11:21:53;5.70;82.30
15394;DHT22;7795;47.986;11.868;2022-12-10T11:24:29;5.70;82.30
15394;DHT22;7795;47.986;11.868;2022-12-10T11:27:03;5.80;82.20
15394;DHT22;7795;47.986;11.868;2022-12-10T11:29:42;5.80;82.30
15394;DHT22;7795;47.986;11.868;2022-12-10T11:32:21;5.80;82.40
15394;DHT22;7795;47.986;11.868;2022-12-10T11:35:01;5.80;82.40
15394;DHT22;7795;47.986;11.868;2022-12-10T11:37:32;5.90;82.30
15394;DHT22;7795;47.986;11.868;2022-12-10T11:40:17;5.90;82.20
15394;DHT22;7795;47.986;11.868;2022-12-10T11:42:54;5.90;82.20
15394;DHT22;7795;47.986;11.868;2022-12-10T11:45:26;5.90;82.10
15394;DHT22;7795;47.986;11.868;2022-12-10T11:48:04;5.90;82.10
15394;DHT22;7795;47.986;11.868;2022-12-10T11:50:40;5.90;82.10
15394;DHT22;7795;47.986;11.868;2022-12-10T11:53:18;5.90;82.70
15394;DHT22;7795;47.986;11.868;2022-12-10T11:55:53;5.90;81.80
15394;DHT22;7795;47.986;11.868;2022-12-10T11:58:43;5.90;81.70
15394;DHT22;7795;47.986;11.868;2022-12-10T12:01:17;5.90;81.80
15394;DHT22;7795;47.986;11.868;2022-12-10T12:03:58;5.90;81.80
15394;DHT22;7795;47.986;11.868;2022-12-10T12:06:39;5.90;82.00
15394;DHT22;7795;47.986;11.868;2022-12-10T12:09:15;5.90;82.10
15394;DHT22;7795;47.986;11.868;2022-12-10T12:11:55;5.90;82.10
15394;DHT22;7795;47.986;11.868;2022-12-10T12:14:25;5.90;82.10
15394;DHT22;7795;47.986;11.868;2022-12-10T12:17:03;5.90;82.10
15394;DHT22;7795;47.986;11.868;2022-12-10T12:19:34;5.90;82.10
15394;DHT22;7795;47.986;11.868;2022-12-10T12:22:10;5.90;82.10
15394;DHT22;7795;47.986;11.868;2022-12-10T12:24:39;5.90;82.10
15394;DHT22;7795;47.986;11.868;2022-12-10T12:27:13;5.90;82.00
15394;DHT22;7795;47.986;11.868;2022-12-10T12:29:45;5.90;82.10
15394;DHT22;7795;47.986;11.868;2022-12-10T12:32:18;5.90;82.10
15394;DHT22;7795;47.986;11.868;2022-12-10T12:34:50;6.00;82.10
15394;DHT22;7795;47.986;11.868;2022-12-10T12:37:20;6.00;82.00
15394;DHT22;7795;47.986;11.868;2022-12-10T12:39:52;6.00;82.00
15394;DHT22;7795;47.986;11.868;2022-12-10T12:42:28;6.00;81.80
15394;DHT22;7795;47.986;11.868;2022-12-10T12:45:01;6.00;81.60
15394;DHT22;7795;47.986;11.868;2022-12-10T12:47:34;6.00;81.60
15394;DHT22;7795;47.986;11.868;2022-12-10T12:50:05;6.00;81.70
15394;DHT22;7795;47.986;11.868;2022-12-10T12:52:44;5.90;81.70
15394;DHT22;7795;47.986;11.868;2022-12-10T12:55:17;5.90;81.80
15394;DHT22;7795;47.986;11.868;2022-12-10T12:57:50;5.90;81.70
15394;DHT22;7795;47.986;11.868;2022-12-10T13:00:19;5.90;81.70
15394;DHT22;7795;47.986;11.868;2022-12-10T13:02:55;5.90;81.80
15394;DHT22;7795;47.986;11.868;2022-12-10T13:05:27;5.90;81.80
15394;DHT22;7795;47.986;11.868;2022-12-10T13:08:29;6.00;81.90
15394;DHT22;7795;47.986;11.868;2022-12-10T13:10:58;6.00;81.90
15394;DHT22;7795;47.986;11.868;2022-12-10T13:13:31;6.00;82.00
15394;DHT22;7795;47.986;11.868;2022-12-10T13:22:07;6.00;81.80
15394;DHT22;7795;47.986;11.868;2022-12-10T13:25:10;6.00;81.70
15394;DHT22;7795;47.986;11.868;2022-12-10T13:27:37;6.00;81.70
15394;DHT22;7795;47.986;11.868;2022-12-10T13:30:31;6.00;81.70
15394;DHT22;7795;47.986;11.868;2022-12-10T13:33:13;6.00;81.80
15394;DHT22;7795;47.986;11.868;2022-12-10T13:35:59;6.00;81.80
15394;DHT22;7795;47.986;11.868;2022-12-10T13:38:27;6.00;81.70
15394;DHT22;7795;47.986;11.868;2022-12-10T13:41:02;5.90;81.70
15394;DHT22;7795;47.986;11.868;2022-12-10T13:43:57;5.90;81.70
15394;DHT22;7795;47.986;11.868;2022-12-10T13:46:59;5.90;81.50
15394;DHT22;7795;47.986;11.868;2022-12-10T13:49:26;5.90;81.70
15394;DHT22;7795;47.986;11.868;2022-12-10T13:51:57;5.90;81.70
15394;DHT22;7795;47.986;11.868;2022-12-10T13:57:37;5.80;81.50
15394;DHT22;7795;47.986;11.868;2022-12-10T14:00:13;5.80;81.60
15394;DHT22;7795;47.986;11.868;2022-12-10T14:03:06;5.80;81.60
15394;DHT22;7795;47.986;11.868;2022-12-10T14:05:57;5.80;81.80
15394;DHT22;7795;47.986;11.868;2022-12-10T14:08:28;5.80;81.70
15394;DHT22;7795;47.986;11.868;2022-12-10T14:10:57;5.70;81.60
15394;DHT22;7795;47.986;11.868;2022-12-10T14:13:30;5.70;81.50
15394;DHT22;7795;47.986;11.868;2022-12-10T14:15:59;5.70;81.70
15394;DHT22;7795;47.986;11.868;2022-12-10T14:18:27;5.70;81.70
15394;DHT22;7795;47.986;11.868;2022-12-10T14:20:55;5.70;81.70
15394;DHT22;7795;47.986;11.868;2022-12-10T14:23:27;5.60;81.70
15394;DHT22;7795;47.986;11.868;2022-12-10T14:26:04;5.60;81.80
15394;DHT22;7795;47.986;11.868;2022-12-10T14:28:31;5.60;81.80
15394;DHT22;7795;47.986;11.868;2022-12-10T14:31:00;5.60;81.90
15394;DHT22;7795;47.986;11.868;2022-12-10T14:33:27;5.60;81.90
15394;DHT22;7795;47.986;11.868;2022-12-10T14:35:53;5.60;81.80
15394;DHT22;7795;47.986;11.868;2022-12-10T14:38:25;5.60;81.80
15394;DHT22;7795;47.986;11.868;2022-12-10T14:40:53;5.60;82.00
15394;DHT22;7795;47.986;11.868;2022-12-10T14:43:22;5.60;82.00
15394;DHT22;7795;47.986;11.868;2022-12-10T14:45:51;5.50;81.90
15394;DHT22;7795;47.986;11.868;2022-12-10T14:48:20;5.50;82.00
15394;DHT22;7795;47.986;11.868;2022-12-10T14:50:48;5.50;82.00
15394;DHT22;7795;47.986;11.868;2022-12-10T14:53:16;5.50;82.00
15394;DHT22;7795;47.986;11.868;2022-12-10T14:55:43;5.50;81.90
15394;DHT22;7795;47.986;11.868;2022-12-10T14:58:15;5.50;81.80
15394;DHT22;7795;47.986;11.868;2022-12-10T15:00:42;5.50;81.80
15394;DHT22;7795;47.986;11.868;2022-12-10T15:03:10;5.40;81.80
15394;DHT22;7795;47.986;11.868;2022-12-10T15:05:38;5.40;82.00
15394;DHT22;7795;47.986;11.868;2022-12-10T15:08:07;5.40;82.00
15394;DHT22;7795;47.986;11.868;2022-12-10T15:10:36;5.40;82.00
15394;DHT22;7795;47.986;11.868;2022-12-10T15:13:03;5.40;82.00
15394;DHT22;7795;47.986;11.868;2022-12-10T15:15:33;5.30;81.90
15394;DHT22;7795;47.986;11.868;2022-12-10T15:18:03;5.30;81.90
15394;DHT22;7795;47.986;11.868;2022-12-10T15:20:31;5.30;81.90
15394;DHT22;7795;47.986;11.868;2022-12-10T15:23:25;5.30;81.90
15394;DHT22;7795;47.986;11.868;2022-12-10T15:25:57;5.30;82.10
15394;DHT22;7795;47.986;11.868;2022-12-10T15:28:26;5.20;82.10
15394;DHT22;7795;47.986;11.868;2022-12-10T15:30:56;5.20;82.10
15394;DHT22;7795;47.986;11.868;2022-12-10T15:33:33;5.20;82.20
15394;DHT22;7795;47.986;11.868;2022-12-10T15:36:02;5.20;82.30
15394;DHT22;7795;47.986;11.868;2022-12-10T15:38:30;5.10;82.10
15394;DHT22;7795;47.986;11.868;2022-12-10T15:40:58;5.10;82.20
15394;DHT22;7795;47.986;11.868;2022-12-10T15:43:27;5.10;82.40
15394;DHT22;7795;47.986;11.868;2022-12-10T15:45:55;5.10;82.30
15394;DHT22;7795;47.986;11.868;2022-12-10T15:48:21;5.00;82.30
15394;DHT22;7795;47.986;11.868;2022-12-10T15:50:50;5.00;82.30
15394;DHT22;7795;47.986;11.868;2022-12-10T15:53:24;5.00;82.30
15394;DHT22;7795;47.986;11.868;2022-12-10T15:55:53;5.00;82.40
15394;DHT22;7795;47.986;11.868;2022-12-10T15:58:19;4.90;82.10
15394;DHT22;7795;47.986;11.868;2022-12-10T16:00:45;4.90;82.30
15394;DHT22;7795;47.986;11.868;2022-12-10T16:03:13;4.90;82.30
15394;DHT22;7795;47.986;11.868;2022-12-10T16:05:40;4.90;82.40
15394;DHT22;7795;47.986;11.868;2022-12-10T16:08:12;4.80;82.40
15394;DHT22;7795;47.986;11.868;2022-12-10T16:10:39;4.80;82.50